sensor_id;sensor_type;location;lat;lon;timestamp;pressure;altitude;pressure_sealevel;temperature;humidity
72226;BME280;60130;52.250;5.048;2023-09-30T00:00:00;1023.8;;;13.1;86.9
72226;BME280;60130;52.250;5.048;2023-09-30T00:05:00;1023.8;;;13.3;86.5
72226;BME280;60130;52.250;5.048;2023-09-30T00:10:01;1023.8;;;13.4;85.5
72226;BME280;60130;52.250;5.048;2023-09-30T00:15:00;1023.8;;;13.4;85.6
72226;BME280;60130;52.250;5.048;2023-09-30T00:20:00;1023.8;;;13.3;85.4
72226;BME280;60130;52.250;5.048;2023-09-30T00:25:00;1023.9;;;13.4;85.3
72226;BME280;60130;52.250;5.048;2023-09-30T00:30:00;1023.9;;;13.3;85.7
72226;BME280;60130;52.250;5.048;2023-09-30T00:35:01;1024.0;;;13.3;86.5
72226;BME280;60130;52.250;5.048;2023-09-30T00:40:00;1024.1;;;13.3;86.7
72226;BME280;60130;52.250;5.048;2023-09-30T00:45:00;1024.2;;;13.3;87.4
72226;BME280;60130;52.250;5.048;2023-09-30T00:50:00;1024.2;;;13.2;87.2
72226;BME280;60130;52.250;5.048;2023-09-30T00:55:00;1024.2;;;13.2;86.8
72226;BME280;60130;52.250;5.048;2023-09-30T01:00:00;1024.2;;;13.2;86.8
72226;BME280;60130;52.250;5.048;2023-09-30T01:05:01;1024.3;;;13.1;86.6
72226;BME280;60130;52.250;5.048;2023-09-30T01:10:00;1024.3;;;13.1;87.2
72226;BME280;60130;52.250;5.048;2023-09-30T01:15:00;1024.3;;;13.1;87.8
72226;BME280;60130;52.250;5.048;2023-09-30T01:20:00;1024.4;;;13.1;87.1
72226;BME280;60130;52.250;5.048;2023-09-30T01:25:00;1024.4;;;13.0;87.2
72226;BME280;60130;52.250;5.048;2023-09-30T01:30:00;1024.5;;;12.9;87.8
72226;BME280;60130;52.250;5.048;2023-09-30T01:35:00;1024.3;;;12.9;88.0
72226;BME280;60130;52.250;5.048;2023-09-30T01:40:00;1024.3;;;12.8;88.4
72226;BME280;60130;52.250;5.048;2023-09-30T01:45:00;1024.4;;;12.9;88.6
72226;BME280;60130;52.250;5.048;2023-09-30T01:50:00;1024.3;;;12.8;88.6
72226;BME280;60130;52.250;5.048;2023-09-30T01:55:00;1024.1;;;12.9;89.3
72226;BME280;60130;52.250;5.048;2023-09-30T02:00:00;1024.2;;;12.9;89.5
72226;BME280;60130;52.250;5.048;2023-09-30T02:05:00;1024.2;;;13.0;88.7
72226;BME280;60130;52.250;5.048;2023-09-30T02:10:00;1024.2;;;13.0;89.2
72226;BME280;60130;52.250;5.048;2023-09-30T02:15:02;1024.2;;;13.0;88.7
72226;BME280;60130;52.250;5.048;2023-09-30T02:20:00;1024.2;;;13.1;89.1
72226;BME280;60130;52.250;5.048;2023-09-30T02:25:00;1024.3;;;13.1;90.1
72226;BME280;60130;52.250;5.048;2023-09-30T02:30:00;1024.3;;;13.2;90.4
72226;BME280;60130;52.250;5.048;2023-09-30T02:35:00;1024.3;;;13.3;90.2
72226;BME280;60130;52.250;5.048;2023-09-30T02:40:00;1024.3;;;13.3;89.9
72226;BME280;60130;52.250;5.048;2023-09-30T02:45:00;1024.2;;;13.3;90.0
72226;BME280;60130;52.250;5.048;2023-09-30T02:50:01;1024.2;;;13.4;89.8
72226;BME280;60130;52.250;5.048;2023-09-30T02:55:00;1024.2;;;13.5;89.7
72226;BME280;60130;52.250;5.048;2023-09-30T03:00:00;1024.2;;;13.6;89.4
72226;BME280;60130;52.250;5.048;2023-09-30T03:05:00;1024.2;;;13.7;89.3
72226;BME280;60130;52.250;5.048;2023-09-30T03:10:00;1024.2;;;13.7;89.0
72226;BME280;60130;52.250;5.048;2023-09-30T03:15:00;1024.3;;;13.6;88.8
72226;BME280;60130;52.250;5.048;2023-09-30T03:20:01;1024.2;;;13.6;89.3
72226;BME280;60130;52.250;5.048;2023-09-30T03:25:00;1024.1;;;13.7;89.3
72226;BME280;60130;52.250;5.048;2023-09-30T03:30:01;1024.2;;;13.8;88.7
72226;BME280;60130;52.250;5.048;2023-09-30T03:35:00;1024.1;;;13.7;89.1
72226;BME280;60130;52.250;5.048;2023-09-30T03:40:00;1024.2;;;13.7;89.4
72226;BME280;60130;52.250;5.048;2023-09-30T03:45:00;1024.2;;;13.7;89.6
72226;BME280;60130;52.250;5.048;2023-09-30T03:50:00;1024.1;;;13.8;89.2
72226;BME280;60130;52.250;5.048;2023-09-30T03:55:00;1024.1;;;13.8;89.1
72226;BME280;60130;52.250;5.048;2023-09-30T04:00:00;1024.1;;;13.8;89.0
72226;BME280;60130;52.250;5.048;2023-09-30T04:05:00;1024.1;;;13.8;89.1
72226;BME280;60130;52.250;5.048;2023-09-30T04:10:00;1024.1;;;13.8;89.2
72226;BME280;60130;52.250;5.048;2023-09-30T04:15:00;1024.1;;;13.6;90.0
72226;BME280;60130;52.250;5.048;2023-09-30T04:20:00;1024.1;;;13.6;90.3
72226;BME280;60130;52.250;5.048;2023-09-30T04:25:00;1024.2;;;13.7;89.9
72226;BME280;60130;52.250;5.048;2023-09-30T04:30:00;1024.3;;;13.8;90.0
72226;BME280;60130;52.250;5.048;2023-09-30T04:35:00;1024.3;;;13.8;89.7
72226;BME280;60130;52.250;5.048;2023-09-30T04:40:00;1024.3;;;13.8;90.2
72226;BME280;60130;52.250;5.048;2023-09-30T04:45:00;1024.3;;;13.9;89.9
72226;BME280;60130;52.250;5.048;2023-09-30T04:50:00;1024.4;;;13.9;90.0
72226;BME280;60130;52.250;5.048;2023-09-30T04:55:00;1024.5;;;13.9;89.6
72226;BME280;60130;52.250;5.048;2023-09-30T05:00:00;1024.6;;;13.8;89.9
72226;BME280;60130;52.250;5.048;2023-09-30T05:05:00;1024.5;;;13.9;89.7
72226;BME280;60130;52.250;5.048;2023-09-30T05:10:00;1024.4;;;13.9;89.3
72226;BME280;60130;52.250;5.048;2023-09-30T05:15:00;1024.4;;;13.8;89.5
72226;BME280;60130;52.250;5.048;2023-09-30T05:20:00;1024.3;;;13.6;89.8
72226;BME280;60130;52.250;5.048;2023-09-30T05:25:00;1024.4;;;13.6;90.2
72226;BME280;60130;52.250;5.048;2023-09-30T05:30:00;1024.4;;;13.6;89.8
72226;BME280;60130;52.250;5.048;2023-09-30T05:35:00;1024.4;;;13.5;89.5
72226;BME280;60130;52.250;5.048;2023-09-30T05:40:00;1024.5;;;13.5;90.0
72226;BME280;60130;52.250;5.048;2023-09-30T05:45:00;1024.5;;;13.7;90.1
72226;BME280;60130;52.250;5.048;2023-09-30T05:50:00;1024.5;;;13.9;89.9
72226;BME280;60130;52.250;5.048;2023-09-30T05:55:01;1024.6;;;13.9;89.9
72226;BME280;60130;52.250;5.048;2023-09-30T06:00:00;1024.7;;;14.0;89.0
72226;BME280;60130;52.250;5.048;2023-09-30T06:05:00;1024.7;;;13.9;89.0
72226;BME280;60130;52.250;5.048;2023-09-30T06:10:00;1024.7;;;13.9;89.8
72226;BME280;60130;52.250;5.048;2023-09-30T06:15:01;1024.6;;;14.1;90.0
72226;BME280;60130;52.250;5.048;2023-09-30T06:20:00;1024.6;;;14.4;89.5
72226;BME280;60130;52.250;5.048;2023-09-30T06:25:00;1024.8;;;14.6;89.3
72226;BME280;60130;52.250;5.048;2023-09-30T06:30:00;1024.8;;;14.5;89.1
72226;BME280;60130;52.250;5.048;2023-09-30T06:35:01;1024.9;;;14.6;88.9
72226;BME280;60130;52.250;5.048;2023-09-30T06:40:00;1024.9;;;14.5;88.7
72226;BME280;60130;52.250;5.048;2023-09-30T06:45:00;1025.0;;;14.4;89.3
72226;BME280;60130;52.250;5.048;2023-09-30T06:50:00;1024.9;;;14.4;89.6
72226;BME280;60130;52.250;5.048;2023-09-30T06:55:00;1025.1;;;14.4;89.9
72226;BME280;60130;52.250;5.048;2023-09-30T07:00:00;1025.2;;;14.5;89.6
72226;BME280;60130;52.250;5.048;2023-09-30T07:05:00;1025.2;;;14.5;89.9
72226;BME280;60130;52.250;5.048;2023-09-30T07:10:00;1025.3;;;14.5;89.4
72226;BME280;60130;52.250;5.048;2023-09-30T07:15:00;1025.4;;;14.5;89.3
72226;BME280;60130;52.250;5.048;2023-09-30T07:20:00;1025.3;;;14.7;89.2
72226;BME280;60130;52.250;5.048;2023-09-30T07:25:00;1025.4;;;14.8;89.0
72226;BME280;60130;52.250;5.048;2023-09-30T07:30:00;1025.4;;;14.9;89.0
72226;BME280;60130;52.250;5.048;2023-09-30T07:35:00;1025.4;;;14.9;89.2
72226;BME280;60130;52.250;5.048;2023-09-30T07:40:00;1025.5;;;15.0;89.0
72226;BME280;60130;52.250;5.048;2023-09-30T07:45:00;1025.6;;;15.1;89.0
72226;BME280;60130;52.250;5.048;2023-09-30T07:50:00;1025.7;;;15.3;88.6
72226;BME280;60130;52.250;5.048;2023-09-30T07:55:00;1025.6;;;15.4;88.4
72226;BME280;60130;52.250;5.048;2023-09-30T08:00:00;1025.5;;;15.5;88.0
72226;BME280;60130;52.250;5.048;2023-09-30T08:05:00;1025.4;;;15.6;87.7
72226;BME280;60130;52.250;5.048;2023-09-30T08:10:00;1025.4;;;15.6;87.7
72226;BME280;60130;52.250;5.048;2023-09-30T08:15:00;1025.3;;;15.6;87.9
72226;BME280;60130;52.250;5.048;2023-09-30T08:20:00;1025.2;;;15.8;87.8
72226;BME280;60130;52.250;5.048;2023-09-30T08:25:00;1025.3;;;16.1;87.1
72226;BME280;60130;52.250;5.048;2023-09-30T08:30:00;1025.4;;;16.5;86.3
72226;BME280;60130;52.250;5.048;2023-09-30T08:35:00;1025.5;;;16.7;85.5
72226;BME280;60130;52.250;5.048;2023-09-30T08:40:00;1025.6;;;17.0;84.3
72226;BME280;60130;52.250;5.048;2023-09-30T08:45:00;1025.6;;;17.1;83.8
72226;BME280;60130;52.250;5.048;2023-09-30T08:50:00;1025.6;;;17.3;83.3
72226;BME280;60130;52.250;5.048;2023-09-30T08:55:01;1025.6;;;17.3;83.6
72226;BME280;60130;52.250;5.048;2023-09-30T09:00:00;1025.6;;;17.4;83.5
72226;BME280;60130;52.250;5.048;2023-09-30T09:05:01;1025.7;;;17.5;82.3
72226;BME280;60130;52.250;5.048;2023-09-30T09:10:05;1025.9;;;17.8;81.7
72226;BME280;60130;52.250;5.048;2023-09-30T09:15:01;1026.0;;;17.9;81.3
72226;BME280;60130;52.250;5.048;2023-09-30T09:20:00;1026.1;;;18.0;80.7
72226;BME280;60130;52.250;5.048;2023-09-30T09:25:00;1026.2;;;18.3;80.2
72226;BME280;60130;52.250;5.048;2023-09-30T09:30:14;1026.2;;;19.1;78.8
72226;BME280;60130;52.250;5.048;2023-09-30T09:35:01;1026.2;;;19.4;78.0
72226;BME280;60130;52.250;5.048;2023-09-30T09:40:00;1026.2;;;19.6;77.6
72226;BME280;60130;52.250;5.048;2023-09-30T09:45:02;1026.2;;;19.0;78.4
72226;BME280;60130;52.250;5.048;2023-09-30T09:50:02;1026.3;;;18.7;78.7
72226;BME280;60130;52.250;5.048;2023-09-30T09:55:00;1026.2;;;18.6;79.8
72226;BME280;60130;52.250;5.048;2023-09-30T10:00:01;1026.3;;;18.5;78.5
72226;BME280;60130;52.250;5.048;2023-09-30T10:05:02;1026.2;;;18.4;79.1
72226;BME280;60130;52.250;5.048;2023-09-30T10:10:02;1026.0;;;18.4;78.8
72226;BME280;60130;52.250;5.048;2023-09-30T10:15:00;1026.0;;;18.8;78.3
72226;BME280;60130;52.250;5.048;2023-09-30T10:20:04;1025.9;;;19.2;76.9
72226;BME280;60130;52.250;5.048;2023-09-30T10:30:06;1025.8;;;19.7;73.4
72226;BME280;60130;52.250;5.048;2023-09-30T10:35:00;1025.8;;;19.6;72.3
72226;BME280;60130;52.250;5.048;2023-09-30T10:40:00;1025.8;;;19.6;71.4
72226;BME280;60130;52.250;5.048;2023-09-30T10:45:00;1025.8;;;19.9;72.5
72226;BME280;60130;52.250;5.048;2023-09-30T10:50:00;1025.8;;;20.0;71.1
72226;BME280;60130;52.250;5.048;2023-09-30T10:55:03;1025.8;;;19.6;70.6
72226;BME280;60130;52.250;5.048;2023-09-30T11:00:08;1025.7;;;19.3;72.1
72226;BME280;60130;52.250;5.048;2023-09-30T11:05:08;1025.7;;;19.3;72.7
72226;BME280;60130;52.250;5.048;2023-09-30T11:10:00;1025.7;;;19.1;73.4
72226;BME280;60130;52.250;5.048;2023-09-30T11:15:01;1025.7;;;19.1;73.9
72226;BME280;60130;52.250;5.048;2023-09-30T11:20:00;1025.7;;;19.3;73.2
72226;BME280;60130;52.250;5.048;2023-09-30T11:25:00;1025.6;;;19.7;73.4
72226;BME280;60130;52.250;5.048;2023-09-30T11:30:02;1025.6;;;19.7;72.9
72226;BME280;60130;52.250;5.048;2023-09-30T11:35:00;1025.6;;;19.7;72.7
72226;BME280;60130;52.250;5.048;2023-09-30T11:40:08;1025.7;;;19.6;72.2
72226;BME280;60130;52.250;5.048;2023-09-30T11:45:00;1025.7;;;19.7;72.6
72226;BME280;60130;52.250;5.048;2023-09-30T11:50:00;1025.7;;;19.6;72.6
72226;BME280;60130;52.250;5.048;2023-09-30T11:55:00;1025.7;;;19.8;71.7
72226;BME280;60130;52.250;5.048;2023-09-30T12:00:00;1025.5;;;19.9;69.9
72226;BME280;60130;52.250;5.048;2023-09-30T12:05:00;1025.5;;;19.7;68.2
72226;BME280;60130;52.250;5.048;2023-09-30T12:10:00;1025.4;;;19.8;68.4
72226;BME280;60130;52.250;5.048;2023-09-30T12:15:00;1025.3;;;19.7;68.1
72226;BME280;60130;52.250;5.048;2023-09-30T12:20:00;1025.3;;;19.6;67.7
72226;BME280;60130;52.250;5.048;2023-09-30T12:25:00;1025.3;;;19.8;67.9
72226;BME280;60130;52.250;5.048;2023-09-30T12:30:00;1025.3;;;20.0;68.4
72226;BME280;60130;52.250;5.048;2023-09-30T12:35:00;1025.2;;;20.2;66.8
72226;BME280;60130;52.250;5.048;2023-09-30T12:40:00;1025.3;;;21.0;66.1
72226;BME280;60130;52.250;5.048;2023-09-30T12:45:00;1025.3;;;21.2;63.6
72226;BME280;60130;52.250;5.048;2023-09-30T12:50:00;1025.2;;;21.2;63.4
72226;BME280;60130;52.250;5.048;2023-09-30T12:55:00;1025.2;;;21.6;62.2
72226;BME280;60130;52.250;5.048;2023-09-30T13:00:00;1025.2;;;21.9;61.1
72226;BME280;60130;52.250;5.048;2023-09-30T13:05:00;1025.2;;;22.1;61.0
72226;BME280;60130;52.250;5.048;2023-09-30T13:10:00;1025.1;;;21.8;61.4
72226;BME280;60130;52.250;5.048;2023-09-30T13:15:00;1025.0;;;22.0;60.9
72226;BME280;60130;52.250;5.048;2023-09-30T13:20:00;1025.0;;;21.8;62.0
72226;BME280;60130;52.250;5.048;2023-09-30T13:25:00;1024.9;;;21.7;62.8
72226;BME280;60130;52.250;5.048;2023-09-30T13:30:00;1024.9;;;21.0;62.4
72226;BME280;60130;52.250;5.048;2023-09-30T13:35:00;1024.9;;;20.6;63.2
72226;BME280;60130;52.250;5.048;2023-09-30T13:40:02;1025.0;;;20.4;64.7
72226;BME280;60130;52.250;5.048;2023-09-30T13:45:00;1025.1;;;20.3;65.0
72226;BME280;60130;52.250;5.048;2023-09-30T13:50:00;1025.0;;;20.6;64.7
72226;BME280;60130;52.250;5.048;2023-09-30T13:55:00;1024.8;;;20.5;65.2
72226;BME280;60130;52.250;5.048;2023-09-30T14:00:00;1024.8;;;20.7;64.2
72226;BME280;60130;52.250;5.048;2023-09-30T14:05:00;1024.8;;;20.9;63.5
72226;BME280;60130;52.250;5.048;2023-09-30T14:10:00;1024.7;;;20.9;63.4
72226;BME280;60130;52.250;5.048;2023-09-30T14:15:00;1024.7;;;20.9;62.6
72226;BME280;60130;52.250;5.048;2023-09-30T14:20:00;1024.7;;;21.1;63.1
72226;BME280;60130;52.250;5.048;2023-09-30T14:25:00;1024.7;;;21.0;63.5
72226;BME280;60130;52.250;5.048;2023-09-30T14:30:00;1024.6;;;20.9;63.6
72226;BME280;60130;52.250;5.048;2023-09-30T14:35:00;1024.6;;;20.6;62.5
72226;BME280;60130;52.250;5.048;2023-09-30T14:40:00;1024.7;;;20.4;62.2
72226;BME280;60130;52.250;5.048;2023-09-30T14:45:00;1024.6;;;20.4;61.8
72226;BME280;60130;52.250;5.048;2023-09-30T14:50:00;1024.6;;;20.3;62.6
72226;BME280;60130;52.250;5.048;2023-09-30T14:55:00;1024.6;;;20.4;62.8
72226;BME280;60130;52.250;5.048;2023-09-30T15:00:00;1024.5;;;20.7;64.2
72226;BME280;60130;52.250;5.048;2023-09-30T15:05:00;1024.5;;;20.8;63.1
72226;BME280;60130;52.250;5.048;2023-09-30T15:10:00;1024.5;;;20.7;62.5
72226;BME280;60130;52.250;5.048;2023-09-30T15:15:00;1024.5;;;20.4;62.8
72226;BME280;60130;52.250;5.048;2023-09-30T15:20:00;1024.4;;;20.3;63.4
72226;BME280;60130;52.250;5.048;2023-09-30T15:25:00;1024.4;;;20.3;63.8
72226;BME280;60130;52.250;5.048;2023-09-30T15:30:00;1024.3;;;20.3;64.6
72226;BME280;60130;52.250;5.048;2023-09-30T15:35:00;1024.3;;;20.0;65.0
72226;BME280;60130;52.250;5.048;2023-09-30T15:40:00;1024.2;;;20.2;65.4
72226;BME280;60130;52.250;5.048;2023-09-30T15:45:00;1024.1;;;20.2;65.4
72226;BME280;60130;52.250;5.048;2023-09-30T15:50:00;1024.1;;;20.2;65.8
72226;BME280;60130;52.250;5.048;2023-09-30T15:55:00;1024.0;;;20.1;67.3
72226;BME280;60130;52.250;5.048;2023-09-30T16:00:00;1024.0;;;19.9;66.9
72226;BME280;60130;52.250;5.048;2023-09-30T16:05:00;1024.0;;;19.6;67.4
72226;BME280;60130;52.250;5.048;2023-09-30T16:10:00;1024.1;;;19.5;67.8
72226;BME280;60130;52.250;5.048;2023-09-30T16:15:00;1024.3;;;19.5;68.3
72226;BME280;60130;52.250;5.048;2023-09-30T16:20:00;1024.3;;;19.3;69.3
72226;BME280;60130;52.250;5.048;2023-09-30T16:25:00;1024.3;;;19.3;69.7
72226;BME280;60130;52.250;5.048;2023-09-30T16:30:00;1024.4;;;19.4;69.8
72226;BME280;60130;52.250;5.048;2023-09-30T16:35:00;1024.4;;;19.2;71.4
72226;BME280;60130;52.250;5.048;2023-09-30T16:40:00;1024.4;;;19.0;71.6
72226;BME280;60130;52.250;5.048;2023-09-30T16:45:01;1024.4;;;18.9;72.0
72226;BME280;60130;52.250;5.048;2023-09-30T16:50:00;1024.3;;;18.8;72.7
72226;BME280;60130;52.250;5.048;2023-09-30T16:55:00;1024.3;;;18.6;72.8
72226;BME280;60130;52.250;5.048;2023-09-30T17:00:00;1024.3;;;18.5;72.9
72226;BME280;60130;52.250;5.048;2023-09-30T17:05:00;1024.2;;;18.5;72.1
72226;BME280;60130;52.250;5.048;2023-09-30T17:10:00;1024.2;;;18.5;72.3
72226;BME280;60130;52.250;5.048;2023-09-30T17:15:01;1024.4;;;18.2;72.7
72226;BME280;60130;52.250;5.048;2023-09-30T17:20:00;1024.4;;;18.1;72.8
72226;BME280;60130;52.250;5.048;2023-09-30T17:25:00;1024.3;;;18.0;73.4
72226;BME280;60130;52.250;5.048;2023-09-30T17:30:00;1024.3;;;17.9;73.7
72226;BME280;60130;52.250;5.048;2023-09-30T17:35:00;1024.3;;;17.8;74.1
72226;BME280;60130;52.250;5.048;2023-09-30T17:40:00;1024.3;;;17.8;74.3
72226;BME280;60130;52.250;5.048;2023-09-30T17:45:00;1024.2;;;17.6;75.7
72226;BME280;60130;52.250;5.048;2023-09-30T17:50:00;1024.3;;;17.6;75.8
72226;BME280;60130;52.250;5.048;2023-09-30T17:55:00;1024.2;;;17.6;75.9
72226;BME280;60130;52.250;5.048;2023-09-30T18:00:00;1024.3;;;17.5;76.0
72226;BME280;60130;52.250;5.048;2023-09-30T18:05:00;1024.3;;;17.6;76.0
72226;BME280;60130;52.250;5.048;2023-09-30T18:10:00;1024.4;;;17.6;75.4
72226;BME280;60130;52.250;5.048;2023-09-30T18:15:00;1024.4;;;17.7;75.2
72226;BME280;60130;52.250;5.048;2023-09-30T18:20:00;1024.3;;;17.7;75.2
72226;BME280;60130;52.250;5.048;2023-09-30T18:25:00;1024.3;;;17.6;75.2
72226;BME280;60130;52.250;5.048;2023-09-30T18:30:02;1024.3;;;17.5;75.5
72226;BME280;60130;52.250;5.048;2023-09-30T18:35:00;1024.3;;;17.4;76.1
72226;BME280;60130;52.250;5.048;2023-09-30T18:40:00;1024.3;;;17.4;75.4
72226;BME280;60130;52.250;5.048;2023-09-30T18:45:00;1024.2;;;17.3;75.6
72226;BME280;60130;52.250;5.048;2023-09-30T18:50:00;1024.0;;;17.2;76.1
72226;BME280;60130;52.250;5.048;2023-09-30T18:55:00;1024.1;;;17.2;76.0
72226;BME280;60130;52.250;5.048;2023-09-30T19:00:00;1024.1;;;17.3;75.6
72226;BME280;60130;52.250;5.048;2023-09-30T19:05:00;1024.1;;;17.2;75.1
72226;BME280;60130;52.250;5.048;2023-09-30T19:10:00;1024.2;;;17.3;74.9
72226;BME280;60130;52.250;5.048;2023-09-30T19:15:00;1024.2;;;17.3;75.3
72226;BME280;60130;52.250;5.048;2023-09-30T19:20:00;1024.1;;;17.3;74.9
72226;BME280;60130;52.250;5.048;2023-09-30T19:25:00;1024.1;;;17.3;74.7
72226;BME280;60130;52.250;5.048;2023-09-30T19:30:00;1024.1;;;17.4;74.6
72226;BME280;60130;52.250;5.048;2023-09-30T19:35:00;1024.2;;;17.4;74.3
72226;BME280;60130;52.250;5.048;2023-09-30T19:40:00;1024.0;;;17.2;75.2
72226;BME280;60130;52.250;5.048;2023-09-30T19:45:00;1024.1;;;17.3;75.1
72226;BME280;60130;52.250;5.048;2023-09-30T19:50:00;1024.1;;;17.2;75.9
72226;BME280;60130;52.250;5.048;2023-09-30T19:55:00;1024.2;;;17.1;75.6
72226;BME280;60130;52.250;5.048;2023-09-30T20:00:00;1024.2;;;17.2;76.1
72226;BME280;60130;52.250;5.048;2023-09-30T20:05:00;1024.2;;;17.0;77.0
72226;BME280;60130;52.250;5.048;2023-09-30T20:10:00;1024.2;;;17.1;76.7
72226;BME280;60130;52.250;5.048;2023-09-30T20:15:00;1024.1;;;17.0;77.5
72226;BME280;60130;52.250;5.048;2023-09-30T20:20:00;1024.3;;;17.0;77.9
72226;BME280;60130;52.250;5.048;2023-09-30T20:25:00;1024.3;;;16.9;78.2
72226;BME280;60130;52.250;5.048;2023-09-30T20:30:00;1024.3;;;16.9;78.5
72226;BME280;60130;52.250;5.048;2023-09-30T20:35:00;1024.4;;;16.8;78.4
72226;BME280;60130;52.250;5.048;2023-09-30T20:40:00;1024.4;;;16.7;78.6
72226;BME280;60130;52.250;5.048;2023-09-30T20:45:00;1024.3;;;16.7;78.2
72226;BME280;60130;52.250;5.048;2023-09-30T20:50:00;1024.2;;;16.8;78.4
72226;BME280;60130;52.250;5.048;2023-09-30T20:55:00;1024.3;;;16.9;77.9
72226;BME280;60130;52.250;5.048;2023-09-30T21:00:00;1024.2;;;16.8;78.8
72226;BME280;60130;52.250;5.048;2023-09-30T21:05:00;1024.1;;;16.8;79.7
72226;BME280;60130;52.250;5.048;2023-09-30T21:10:00;1024.1;;;16.6;81.1
72226;BME280;60130;52.250;5.048;2023-09-30T21:15:00;1024.3;;;16.8;80.0
72226;BME280;60130;52.250;5.048;2023-09-30T21:20:00;1024.1;;;16.7;79.5
72226;BME280;60130;52.250;5.048;2023-09-30T21:25:01;1024.0;;;16.7;79.7
72226;BME280;60130;52.250;5.048;2023-09-30T21:30:00;1024.1;;;16.8;79.4
72226;BME280;60130;52.250;5.048;2023-09-30T21:35:00;1024.1;;;16.8;78.5
72226;BME280;60130;52.250;5.048;2023-09-30T21:40:00;1024.0;;;16.8;79.0
72226;BME280;60130;52.250;5.048;2023-09-30T21:45:00;1023.8;;;16.7;79.9
72226;BME280;60130;52.250;5.048;2023-09-30T21:50:00;1023.8;;;16.6;81.0
72226;BME280;60130;52.250;5.048;2023-09-30T21:55:00;1023.9;;;16.6;81.1
72226;BME280;60130;52.250;5.048;2023-09-30T22:00:00;1023.8;;;16.5;81.7
72226;BME280;60130;52.250;5.048;2023-09-30T22:05:00;1023.9;;;16.5;82.0
72226;BME280;60130;52.250;5.048;2023-09-30T22:10:00;1023.9;;;16.6;82.0
72226;BME280;60130;52.250;5.048;2023-09-30T22:15:00;1023.9;;;16.5;82.2
72226;BME280;60130;52.250;5.048;2023-09-30T22:20:00;1023.9;;;16.6;82.0
72226;BME280;60130;52.250;5.048;2023-09-30T22:25:00;1023.8;;;16.6;82.2
72226;BME280;60130;52.250;5.048;2023-09-30T22:30:00;1023.7;;;16.6;82.4
72226;BME280;60130;52.250;5.048;2023-09-30T22:35:00;1023.6;;;16.6;82.4
72226;BME280;60130;52.250;5.048;2023-09-30T22:40:00;1023.4;;;16.6;82.4
72226;BME280;60130;52.250;5.048;2023-09-30T22:45:00;1023.5;;;16.4;83.2
72226;BME280;60130;52.250;5.048;2023-09-30T22:50:00;1023.4;;;16.5;83.1
72226;BME280;60130;52.250;5.048;2023-09-30T22:55:00;1023.2;;;16.6;82.8
72226;BME280;60130;52.250;5.048;2023-09-30T23:00:00;1023.2;;;16.6;82.9
72226;BME280;60130;52.250;5.048;2023-09-30T23:05:00;1023.2;;;16.6;83.1
72226;BME280;60130;52.250;5.048;2023-09-30T23:10:00;1023.1;;;16.6;83.2
72226;BME280;60130;52.250;5.048;2023-09-30T23:15:00;1023.0;;;16.5;83.1
72226;BME280;60130;52.250;5.048;2023-09-30T23:20:00;1022.9;;;16.4;83.0
72226;BME280;60130;52.250;5.048;2023-09-30T23:25:00;1022.9;;;16.3;82.3
72226;BME280;60130;52.250;5.048;2023-09-30T23:30:00;1023.0;;;16.4;81.7
72226;BME280;60130;52.250;5.048;2023-09-30T23:35:00;1023.0;;;16.6;81.1
72226;BME280;60130;52.250;5.048;2023-09-30T23:40:00;unavailable;;;unavailable;unavailable
72226;BME280;60130;52.250;5.048;2023-09-30T23:45:00;unavailable;;;unavailable;unavailable
72226;BME280;60130;52.250;5.048;2023-09-30T23:50:00;unavailable;;;unavailable;unavailable
72226;BME280;60130;52.250;5.048;2023-09-30T23:55:00;1022.7;;;16.7;80.3
